createdAt,value
2022-12-24T00:01:47.720Z,0.80
2022-12-24T00:04:17.246Z,0.75
2022-12-24T00:06:47.351Z,1.00
2022-12-24T00:09:16.917Z,0.90
2022-12-24T00:11:46.668Z,0.60
2022-12-24T00:14:16.321Z,0.68
2022-12-24T00:16:47.405Z,0.60
2022-12-24T00:19:16.973Z,0.52
2022-12-24T00:21:46.438Z,1.27
2022-12-24T00:24:16.149Z,0.63
2022-12-24T00:26:45.646Z,1.00
2022-12-24T00:29:15.412Z,0.68
2022-12-24T00:31:44.973Z,0.98
2022-12-24T00:34:17.894Z,0.77
2022-12-24T00:36:47.637Z,0.80
2022-12-24T00:39:17.191Z,0.98
2022-12-24T00:41:46.764Z,0.90
2022-12-24T00:44:16.603Z,0.60
2022-12-24T00:46:46.269Z,0.93
2022-12-24T00:49:17.408Z,0.88
2022-12-24T00:51:46.951Z,0.70
2022-12-24T00:54:16.659Z,0.98
2022-12-24T00:56:46.217Z,1.15
2022-12-24T00:59:15.996Z,1.00
2022-12-24T01:01:45.566Z,0.90
2022-12-24T01:04:45.294Z,1.00
2022-12-24T01:07:14.937Z,0.65
2022-12-24T01:09:44.490Z,0.90
2022-12-24T01:12:14.168Z,0.60
2022-12-24T01:14:44.000Z,0.82
2022-12-24T01:17:13.759Z,0.90
2022-12-24T01:19:44.858Z,0.90
2022-12-24T01:22:14.558Z,0.63
2022-12-24T01:24:44.944Z,0.90
2022-12-24T01:27:14.470Z,0.85
2022-12-24T01:29:43.990Z,1.08
2022-12-24T01:32:13.548Z,0.93
2022-12-24T01:34:44.831Z,0.75
2022-12-24T01:37:14.276Z,0.68
2022-12-24T01:39:43.809Z,0.98
2022-12-24T01:42:39.336Z,1.17
2022-12-24T01:45:51.624Z,0.80
2022-12-24T01:48:35.888Z,0.80
2022-12-24T01:51:17.792Z,1.45
2022-12-24T01:53:54.811Z,0.70
2022-12-24T01:56:26.240Z,0.90
2022-12-24T01:59:06.841Z,0.70
2022-12-24T02:01:36.725Z,1.23
2022-12-24T02:04:33.469Z,1.63
2022-12-24T02:07:04.756Z,0.73
2022-12-24T02:09:35.620Z,0.85
2022-12-24T02:12:08.115Z,0.93
2022-12-24T02:14:38.524Z,1.00
2022-12-24T02:17:22.367Z,1.10
2022-12-24T02:20:47.880Z,1.10
2022-12-24T02:24:10.858Z,0.95
2022-12-24T02:27:20.185Z,0.68
2022-12-24T02:30:16.111Z,0.93
2022-12-24T02:33:21.415Z,0.80
2022-12-24T02:36:00.982Z,2.20
2022-12-24T02:38:37.275Z,0.77
2022-12-24T02:41:15.844Z,0.77
2022-12-24T02:43:48.712Z,1.00
2022-12-24T02:46:27.315Z,0.85
2022-12-24T02:49:00.394Z,0.75
2022-12-24T02:51:29.896Z,1.98
2022-12-24T02:53:59.658Z,0.88
2022-12-24T02:56:49.808Z,1.27
2022-12-24T02:59:46.106Z,1.17
2022-12-24T03:02:28.957Z,1.23
2022-12-24T03:05:12.116Z,1.20
2022-12-24T03:07:58.407Z,0.75
2022-12-24T03:10:38.022Z,1.42
2022-12-24T03:13:15.344Z,0.85
2022-12-24T03:15:46.438Z,1.08
2022-12-24T03:18:22.164Z,1.23
2022-12-24T03:21:02.009Z,0.80
2022-12-24T03:23:31.763Z,1.13
2022-12-24T03:26:06.706Z,1.13
2022-12-24T03:28:39.002Z,0.80
2022-12-24T03:31:11.112Z,0.97
2022-12-24T03:33:42.555Z,1.10
2022-12-24T03:36:13.551Z,1.02
2022-12-24T03:38:43.149Z,0.82
2022-12-24T03:41:12.777Z,1.00
2022-12-24T03:43:42.251Z,1.05
2022-12-24T03:46:11.836Z,0.73
2022-12-24T03:48:42.732Z,1.20
2022-12-24T03:51:20.435Z,1.00
2022-12-24T03:53:50.398Z,0.90
2022-12-24T03:56:20.443Z,0.90
2022-12-24T03:58:50.164Z,1.15
2022-12-24T04:01:20.282Z,1.15
2022-12-24T04:03:51.201Z,1.05
2022-12-24T04:06:20.751Z,0.95
2022-12-24T04:08:50.254Z,0.63
2022-12-24T04:11:20.820Z,0.80
2022-12-24T04:13:50.467Z,1.02
2022-12-24T04:16:20.404Z,2.47
2022-12-24T04:18:51.595Z,0.68
2022-12-24T04:21:21.210Z,0.60
2022-12-24T04:23:51.373Z,1.38
2022-12-24T04:26:20.889Z,0.80
2022-12-24T04:28:50.804Z,0.85
2022-12-24T04:31:20.555Z,1.00
2022-12-24T04:33:53.704Z,0.70
2022-12-24T04:38:53.966Z,0.90
2022-12-24T04:41:25.428Z,0.95
2022-12-24T04:43:56.908Z,0.80
2022-12-24T04:46:30.964Z,0.90
2022-12-24T04:49:06.473Z,1.35
2022-12-24T04:51:36.379Z,0.73
2022-12-24T04:54:06.337Z,0.93
2022-12-24T04:56:35.969Z,0.90
2022-12-24T04:59:05.918Z,0.90
2022-12-24T05:01:35.761Z,1.52
2022-12-24T05:04:07.528Z,1.05
2022-12-24T05:06:37.064Z,1.00
2022-12-24T05:09:06.545Z,0.80
2022-12-24T05:11:35.997Z,0.70
2022-12-24T05:14:05.681Z,0.60
2022-12-24T05:16:35.631Z,1.55
2022-12-24T05:19:06.714Z,0.93
2022-12-24T05:21:36.273Z,1.00
2022-12-24T05:24:24.318Z,1.00
2022-12-24T05:26:57.448Z,1.33
2022-12-24T05:31:56.243Z,1.25
2022-12-24T05:34:27.040Z,0.90
2022-12-24T05:36:56.693Z,0.77
2022-12-24T05:39:26.401Z,0.80
2022-12-24T05:41:55.874Z,1.30
2022-12-24T05:44:26.630Z,0.70
2022-12-24T05:46:57.155Z,1.17
2022-12-24T05:49:28.902Z,0.70
2022-12-24T05:51:58.310Z,1.00
2022-12-24T05:54:28.122Z,0.98
2022-12-24T05:56:57.727Z,1.50
2022-12-24T05:59:27.190Z,1.00
2022-12-24T06:01:56.716Z,0.75
2022-12-24T06:04:29.274Z,1.08
2022-12-24T06:06:58.961Z,0.85
2022-12-24T06:09:28.393Z,1.08
2022-12-24T06:11:58.162Z,1.08
2022-12-24T06:14:27.727Z,1.15
2022-12-24T06:16:57.196Z,1.63
2022-12-24T06:19:28.237Z,1.15
2022-12-24T06:21:57.735Z,1.02
2022-12-24T06:24:27.264Z,1.23
2022-12-24T06:26:56.673Z,1.27
2022-12-24T06:29:27.425Z,1.15
2022-12-24T06:31:57.230Z,1.75
2022-12-24T06:34:28.324Z,1.23
2022-12-24T06:36:57.838Z,1.05
2022-12-24T06:39:27.443Z,1.30
2022-12-24T06:41:56.978Z,1.60
2022-12-24T06:44:26.489Z,0.77
2022-12-24T06:46:56.031Z,1.10
2022-12-24T06:49:26.954Z,0.90
2022-12-24T06:51:56.548Z,1.08
2022-12-24T06:54:26.014Z,1.27
2022-12-24T06:56:57.850Z,0.95
2022-12-24T06:59:27.516Z,0.90
2022-12-24T07:01:57.137Z,0.82
2022-12-24T07:04:28.103Z,1.15
2022-12-24T07:06:57.587Z,0.90
2022-12-24T07:09:27.231Z,1.13
2022-12-24T07:11:56.745Z,1.10
2022-12-24T07:14:26.225Z,1.50
2022-12-24T07:16:59.300Z,1.30
2022-12-24T07:19:30.865Z,1.27
2022-12-24T07:22:00.336Z,1.00
2022-12-24T07:24:30.080Z,0.93
2022-12-24T07:26:59.807Z,1.17
2022-12-24T07:29:29.665Z,0.95
2022-12-24T07:31:59.360Z,1.80
2022-12-24T07:34:30.460Z,1.38
2022-12-24T07:37:00.020Z,1.60
2022-12-24T07:39:29.800Z,1.58
2022-12-24T07:41:59.432Z,2.30
2022-12-24T07:44:29.126Z,1.20
2022-12-24T07:46:58.764Z,1.30
2022-12-24T07:49:30.036Z,1.15
2022-12-24T07:51:59.877Z,1.08
2022-12-24T07:54:29.377Z,0.70
2022-12-24T07:56:58.993Z,0.93
2022-12-24T07:59:28.623Z,1.15
2022-12-24T08:01:58.289Z,1.20
2022-12-24T08:04:32.413Z,1.00
2022-12-24T08:07:02.107Z,2.33
2022-12-24T08:09:33.560Z,1.10
2022-12-24T08:12:04.263Z,0.80
2022-12-24T08:14:34.115Z,1.00
2022-12-24T08:17:03.643Z,1.17
2022-12-24T08:19:34.832Z,1.27
2022-12-24T08:22:04.594Z,0.70
2022-12-24T08:24:34.415Z,1.00
2022-12-24T08:27:05.527Z,1.08
2022-12-24T08:29:35.283Z,0.73
2022-12-24T08:32:05.723Z,0.60
2022-12-24T08:34:36.821Z,0.65
2022-12-24T08:37:06.572Z,0.80
2022-12-24T08:39:36.093Z,1.65
2022-12-24T08:42:06.345Z,0.80
2022-12-24T08:44:36.043Z,0.90
2022-12-24T08:47:05.728Z,0.85
2022-12-24T08:49:36.572Z,0.77
2022-12-24T08:52:06.828Z,0.73
2022-12-24T08:54:36.381Z,0.70
2022-12-24T08:57:06.017Z,0.88
2022-12-24T08:59:35.489Z,0.75
2022-12-24T09:02:05.286Z,0.82
2022-12-24T09:04:40.092Z,1.00
2022-12-24T09:07:11.276Z,0.88
2022-12-24T09:09:41.015Z,0.95
2022-12-24T09:12:11.382Z,0.77
2022-12-24T09:14:41.196Z,0.77
2022-12-24T09:17:10.860Z,1.00
2022-12-24T09:19:41.825Z,0.77
2022-12-24T09:22:11.327Z,0.85
2022-12-24T09:24:41.145Z,0.68
2022-12-24T09:27:10.603Z,0.90
2022-12-24T09:29:40.630Z,0.55
2022-12-24T09:32:10.299Z,1.10
2022-12-24T09:34:41.241Z,0.57
2022-12-24T09:37:10.658Z,0.90
2022-12-24T09:39:40.092Z,0.75
2022-12-24T09:42:22.131Z,0.80
2022-12-24T09:45:00.467Z,0.85
2022-12-24T09:47:39.634Z,1.00
2022-12-24T09:50:31.928Z,0.80
2022-12-24T09:53:07.879Z,0.82
2022-12-24T09:55:45.876Z,1.05
2022-12-24T09:58:26.318Z,0.75
2022-12-24T10:00:57.387Z,0.90
2022-12-24T10:03:26.981Z,0.63
2022-12-24T10:06:11.580Z,0.80
2022-12-24T10:09:00.630Z,0.57
2022-12-24T10:11:44.791Z,0.88
2022-12-24T10:14:35.662Z,0.80
2022-12-24T10:17:39.665Z,0.60
2022-12-24T10:23:18.637Z,0.93
2022-12-24T10:26:01.728Z,1.00
2022-12-24T10:28:44.091Z,0.80
2022-12-24T10:31:14.960Z,0.73
2022-12-24T10:33:48.334Z,0.85
2022-12-24T10:36:28.836Z,0.98
2022-12-24T10:38:59.974Z,1.00
2022-12-24T10:41:31.828Z,1.10
2022-12-24T10:44:02.314Z,1.15
2022-12-24T10:46:40.339Z,0.90
2022-12-24T10:49:17.087Z,2.13
2022-12-24T10:51:52.701Z,1.02
2022-12-24T10:54:27.653Z,1.33
2022-12-24T10:57:01.234Z,1.20
2022-12-24T11:02:31.430Z,0.80
2022-12-24T11:05:06.297Z,0.90
2022-12-24T11:07:35.889Z,1.25
2022-12-24T11:10:09.751Z,0.82
2022-12-24T11:13:05.765Z,0.70
2022-12-24T11:15:37.476Z,0.50
2022-12-24T11:18:15.846Z,0.88
2022-12-24T11:20:53.370Z,0.95
2022-12-24T11:23:24.442Z,0.93
2022-12-24T11:25:56.609Z,1.02
2022-12-24T11:28:29.750Z,1.08
2022-12-24T11:33:47.603Z,1.13
2022-12-24T11:36:22.870Z,0.90
2022-12-24T11:38:55.992Z,0.95
2022-12-24T11:41:27.695Z,0.98
2022-12-24T11:44:06.880Z,1.35
2022-12-24T11:46:43.284Z,1.25
2022-12-24T11:49:25.232Z,2.28
2022-12-24T11:52:24.725Z,1.08
2022-12-24T11:55:18.583Z,1.30
2022-12-24T11:58:02.300Z,0.90
2022-12-24T12:00:32.073Z,1.52
2022-12-24T12:03:04.322Z,1.00
2022-12-24T12:05:36.945Z,1.10
2022-12-24T12:08:18.671Z,1.45
2022-12-24T12:10:50.914Z,1.38
2022-12-24T12:13:32.919Z,0.82
2022-12-24T12:16:16.125Z,1.15
2022-12-24T12:18:54.172Z,1.20
2022-12-24T12:21:31.519Z,0.93
2022-12-24T12:24:08.179Z,0.98
2022-12-24T12:26:38.127Z,1.02
2022-12-24T12:29:31.074Z,1.10
2022-12-24T12:32:09.039Z,1.20
2022-12-24T12:34:45.239Z,1.00
2022-12-24T12:37:22.629Z,1.20
2022-12-24T12:39:52.914Z,0.88
2022-12-24T12:42:32.102Z,1.50
2022-12-24T12:45:30.410Z,0.95
2022-12-24T12:48:32.326Z,0.98
2022-12-24T12:51:09.569Z,1.05
2022-12-24T12:54:02.236Z,1.13
2022-12-24T12:56:35.584Z,1.48
2022-12-24T12:59:11.560Z,1.27
2022-12-24T13:01:53.949Z,1.13
2022-12-24T13:05:23.202Z,1.00
2022-12-24T13:08:34.306Z,1.20
2022-12-24T13:11:41.035Z,0.90
2022-12-24T13:14:46.627Z,1.30
2022-12-24T13:18:00.058Z,1.38
2022-12-24T13:20:32.909Z,1.52
2022-12-24T13:23:12.895Z,1.38
2022-12-24T13:25:45.470Z,1.30
2022-12-24T13:28:38.612Z,1.08
2022-12-24T13:31:31.634Z,1.20
2022-12-24T13:34:07.648Z,3.15
2022-12-24T13:37:14.265Z,1.38
2022-12-24T13:40:23.977Z,1.52
2022-12-24T13:43:12.219Z,0.80
2022-12-24T13:45:50.999Z,1.33
2022-12-24T13:48:33.203Z,1.30
2022-12-24T13:51:21.390Z,1.30
2022-12-24T13:53:59.077Z,3.40
2022-12-24T13:56:47.806Z,1.52
2022-12-24T13:59:38.579Z,1.52
2022-12-24T14:02:21.728Z,1.15
2022-12-24T14:04:52.245Z,1.60
2022-12-24T14:07:23.092Z,1.70
2022-12-24T14:09:53.775Z,1.17
2022-12-24T14:12:49.600Z,1.40
2022-12-24T14:16:04.815Z,1.20
2022-12-24T14:18:41.660Z,1.40
2022-12-24T14:21:22.308Z,2.08
2022-12-24T14:23:58.311Z,1.10
2022-12-24T14:26:36.043Z,0.98
2022-12-24T14:29:22.870Z,1.42
2022-12-24T14:31:56.740Z,1.80
2022-12-24T14:34:27.492Z,1.50
2022-12-24T14:36:58.200Z,1.77
2022-12-24T14:39:36.029Z,1.75
2022-12-24T14:42:27.224Z,1.30
2022-12-24T14:45:12.443Z,1.70
2022-12-24T14:47:50.581Z,1.55
2022-12-24T14:50:56.316Z,0.98
2022-12-24T14:53:49.384Z,1.10
2022-12-24T14:56:23.395Z,1.40
2022-12-24T14:58:53.118Z,1.48
2022-12-24T15:01:27.003Z,1.40
2022-12-24T15:04:06.524Z,1.08
2022-12-24T15:06:40.394Z,1.00
2022-12-24T15:09:20.003Z,1.65
2022-12-24T15:11:55.907Z,1.23
2022-12-24T15:14:29.249Z,1.20
2022-12-24T15:17:03.187Z,1.20
2022-12-24T15:19:37.699Z,1.05
2022-12-24T15:22:20.275Z,1.52
2022-12-24T15:24:49.891Z,1.30
2022-12-24T15:27:23.833Z,1.08
2022-12-24T15:29:58.246Z,1.20
2022-12-24T15:32:27.736Z,1.20
2022-12-24T15:34:57.663Z,1.00
2022-12-24T15:37:30.867Z,1.42
2022-12-24T15:42:37.076Z,1.70
2022-12-24T15:45:14.251Z,1.77
2022-12-24T15:47:50.539Z,2.03
2022-12-24T15:50:30.313Z,1.65
2022-12-24T15:53:20.720Z,1.73
2022-12-24T15:56:10.596Z,1.80
2022-12-24T15:58:45.553Z,0.98
2022-12-24T16:01:30.085Z,1.60
2022-12-24T16:04:01.368Z,1.58
2022-12-24T16:06:56.858Z,1.38
2022-12-24T16:09:45.700Z,1.98
2022-12-24T16:12:20.060Z,2.72
2022-12-24T16:14:57.384Z,1.33
2022-12-24T16:17:31.135Z,1.33
2022-12-24T16:20:08.143Z,1.70
2022-12-24T16:22:41.299Z,1.40
2022-12-24T16:25:25.891Z,1.35
2022-12-24T16:27:59.941Z,1.58
2022-12-24T16:30:37.963Z,1.60
2022-12-24T16:33:14.640Z,3.20
2022-12-24T16:35:44.907Z,3.25
2022-12-24T16:38:14.573Z,2.60
2022-12-24T16:40:44.769Z,2.00
2022-12-24T16:43:32.445Z,2.15
2022-12-24T16:46:08.150Z,1.35
2022-12-24T16:48:38.961Z,2.50
2022-12-24T16:51:08.367Z,2.15
2022-12-24T16:53:37.841Z,3.42
2022-12-24T16:56:09.709Z,1.80
2022-12-24T16:58:39.160Z,1.80
2022-12-24T17:01:11.090Z,1.60
2022-12-24T17:03:40.672Z,1.25
2022-12-24T17:06:10.466Z,1.92
2022-12-24T17:08:39.863Z,1.40
2022-12-24T17:11:09.292Z,1.92
2022-12-24T17:13:38.687Z,2.60
2022-12-24T17:16:10.405Z,2.17
2022-12-24T17:18:39.836Z,1.80
2022-12-24T17:21:10.776Z,1.33
2022-12-24T17:23:42.585Z,1.67
2022-12-24T17:26:15.129Z,2.00
2022-12-24T17:28:44.880Z,1.80
2022-12-24T17:31:17.730Z,2.28
2022-12-24T17:33:47.154Z,2.08
2022-12-24T17:36:16.706Z,2.20
2022-12-24T17:38:46.607Z,1.92
2022-12-24T17:41:20.104Z,1.67
2022-12-24T17:43:50.363Z,2.00
2022-12-24T17:46:24.587Z,1.95
2022-12-24T17:48:54.332Z,2.92
2022-12-24T17:51:25.125Z,3.40
2022-12-24T17:53:54.683Z,3.13
2022-12-24T17:56:24.185Z,2.40
2022-12-24T17:58:53.734Z,1.85
2022-12-24T18:01:30.590Z,2.20
2022-12-24T18:04:03.134Z,2.15
2022-12-24T18:06:32.697Z,2.38
2022-12-24T18:09:02.129Z,2.22
2022-12-24T18:11:35.396Z,2.72
2022-12-24T18:16:39.926Z,2.30
2022-12-24T18:19:12.627Z,3.38
2022-12-24T18:21:42.263Z,3.58
2022-12-24T18:24:13.658Z,4.30
2022-12-24T18:26:46.000Z,4.10
2022-12-24T18:29:16.085Z,3.60
2022-12-24T18:31:46.972Z,4.47
2022-12-24T18:34:16.819Z,3.75
2022-12-24T18:36:52.904Z,3.75
2022-12-24T18:39:24.512Z,3.72
2022-12-24T18:41:53.990Z,4.38
2022-12-24T18:44:25.668Z,3.42
2022-12-24T18:46:56.781Z,3.45
2022-12-24T18:49:26.375Z,3.08
